This is the latest recevied weather packets stored in our database for station/object K3TLB-13. If no packets are shown the sender has not sent any weather packets the latest 1 day(s).
| Time | Temp. | Humidity | Pressure | Rain* | Wind** | Luminosity | Snow |
|---|---|---|---|---|---|---|---|
| 1777999142 | 25.56° C | 39% | 1009.9 hPa | 0 mm | 4.47 m/s, 186° | - | - |
| 1777998844 | 25° C | 41% | 1010 hPa | 0 mm | 4.92 m/s, 254° | - | - |
| 1777998541 | 25° C | 38% | 1010.1 hPa | 0 mm | 4.92 m/s, 242° | - | - |
| 1777998241 | 25.56° C | 39% | 1010.2 hPa | 0 mm | 4.92 m/s, 227° | - | - |
| 1777997941 | 25° C | 40% | 1010.3 hPa | 0 mm | 4.92 m/s, 230° | - | - |
| 1777997643 | 25° C | 39% | 1010.3 hPa | 0 mm | 4.92 m/s, 244° | - | - |
| 1777997341 | 25° C | 38% | 1010.4 hPa | 0 mm | 4.47 m/s, 194° | - | - |
| 1777997043 | 25° C | 38% | 1010.6 hPa | 0 mm | 4.92 m/s, 226° | - | - |
| 1777996742 | 25° C | 43% | 1010.4 hPa | 0 mm | 4.92 m/s, 193° | - | - |
| 1777996442 | 25° C | 40% | 1010.5 hPa | 0 mm | 4.47 m/s, 256° | - | - |
| 1777996141 | 25° C | 42% | 1010.6 hPa | 0 mm | 4.02 m/s, 207° | - | - |
| 1777995841 | 25° C | 40% | 1010.6 hPa | 0 mm | 3.13 m/s, 254° | - | - |
| 1777995541 | 25° C | 49% | 1010.6 hPa | 0 mm | 3.13 m/s, 184° | - | - |
| 1777995242 | 25° C | 43% | 1010.6 hPa | 0 mm | 3.58 m/s, 209° | - | - |
| 1777994941 | 24.44° C | 46% | 1010.5 hPa | 0 mm | 3.13 m/s, 147° | - | - |
| 1777994641 | 24.44° C | 46% | 1010.6 hPa | 0 mm | 3.13 m/s, 172° | - | - |
| 1777994341 | 23.89° C | 47% | 1010.6 hPa | 0 mm | 3.13 m/s, 196° | - | - |
| 1777994078 | 23.89° C | 47% | 1010.6 hPa | 0 mm | 2.68 m/s, 220° | - | - |
| 1777994042 | 23.89° C | 47% | 1010.6 hPa | 0 mm | 2.68 m/s, 220° | - | - |
| 1777993741 | 23.89° C | 48% | 1010.5 hPa | 0 mm | 2.24 m/s, 187° | - | - |
| 1777993442 | 23.33° C | 51% | 1010.4 hPa | 0 mm | 2.24 m/s, 165° | - | - |
| 1777993144 | 23.33° C | 49% | 1010.5 hPa | 0 mm | 2.68 m/s, 153° | - | - |
| 1777992842 | 23.33° C | 49% | 1010.5 hPa | 0 mm | 2.68 m/s, 242° | - | - |
| 1777992542 | 22.78° C | 52% | 1010.5 hPa | 0 mm | 2.24 m/s, 126° | - | - |
| 1777992242 | 23.33° C | 50% | 1010.5 hPa | 0 mm | 1.79 m/s, 136° | - | - |
* Rain latest hour (hover to see other rain measurements)
** Current wind speed in m/s (hover to see current wind gust speed)